sensor_id;sensor_type;location;lat;lon;timestamp;P1;durP1;ratioP1;P2;durP2;ratioP2
2039;SDS011;1025;42.686;23.350;2022-10-31T00:00:18;3.20;;;3.00;;
2039;SDS011;1025;42.686;23.350;2022-10-31T00:02:44;2.80;;;1.90;;
2039;SDS011;1025;42.686;23.350;2022-10-31T00:05:11;4.40;;;2.87;;
2039;SDS011;1025;42.686;23.350;2022-10-31T00:07:37;2.80;;;2.53;;
2039;SDS011;1025;42.686;23.350;2022-10-31T00:10:04;2.87;;;2.23;;
2039;SDS011;1025;42.686;23.350;2022-10-31T00:12:31;1.90;;;1.80;;
2039;SDS011;1025;42.686;23.350;2022-10-31T00:14:59;2.23;;;2.13;;
2039;SDS011;1025;42.686;23.350;2022-10-31T00:17:26;2.13;;;2.03;;
2039;SDS011;1025;42.686;23.350;2022-10-31T00:19:52;2.03;;;1.93;;
2039;SDS011;1025;42.686;23.350;2022-10-31T00:22:19;2.50;;;2.30;;
2039;SDS011;1025;42.686;23.350;2022-10-31T00:24:45;4.77;;;2.80;;
2039;SDS011;1025;42.686;23.350;2022-10-31T00:27:12;3.27;;;3.07;;
2039;SDS011;1025;42.686;23.350;2022-10-31T00:29:38;15.63;;;1.93;;
2039;SDS011;1025;42.686;23.350;2022-10-31T00:32:06;2.40;;;2.30;;
2039;SDS011;1025;42.686;23.350;2022-10-31T00:34:33;1.90;;;1.80;;
2039;SDS011;1025;42.686;23.350;2022-10-31T00:36:59;2.53;;;2.43;;
2039;SDS011;1025;42.686;23.350;2022-10-31T00:39:26;2.00;;;1.90;;
2039;SDS011;1025;42.686;23.350;2022-10-31T00:41:52;1.80;;;1.70;;
2039;SDS011;1025;42.686;23.350;2022-10-31T00:44:19;2.67;;;2.50;;
2039;SDS011;1025;42.686;23.350;2022-10-31T00:46:45;2.23;;;2.00;;
2039;SDS011;1025;42.686;23.350;2022-10-31T00:49:13;1.90;;;1.80;;
2039;SDS011;1025;42.686;23.350;2022-10-31T00:51:40;2.10;;;2.00;;
2039;SDS011;1025;42.686;23.350;2022-10-31T00:54:06;3.00;;;2.80;;
2039;SDS011;1025;42.686;23.350;2022-10-31T00:56:33;2.27;;;2.17;;
2039;SDS011;1025;42.686;23.350;2022-10-31T00:59:01;3.00;;;2.70;;
2039;SDS011;1025;42.686;23.350;2022-10-31T01:01:27;2.67;;;2.57;;
2039;SDS011;1025;42.686;23.350;2022-10-31T01:03:54;3.43;;;3.23;;
2039;SDS011;1025;42.686;23.350;2022-10-31T01:06:22;2.90;;;2.70;;
2039;SDS011;1025;42.686;23.350;2022-10-31T01:08:48;2.27;;;2.17;;
2039;SDS011;1025;42.686;23.350;2022-10-31T01:11:15;2.57;;;2.47;;
2039;SDS011;1025;42.686;23.350;2022-10-31T01:13:42;1.73;;;1.63;;
2039;SDS011;1025;42.686;23.350;2022-10-31T01:16:11;3.30;;;2.43;;
2039;SDS011;1025;42.686;23.350;2022-10-31T01:18:38;3.30;;;3.00;;
2039;SDS011;1025;42.686;23.350;2022-10-31T01:21:06;3.57;;;3.27;;
2039;SDS011;1025;42.686;23.350;2022-10-31T01:23:34;2.33;;;1.93;;
2039;SDS011;1025;42.686;23.350;2022-10-31T01:26:02;2.27;;;2.17;;
2039;SDS011;1025;42.686;23.350;2022-10-31T01:28:29;2.33;;;2.23;;
2039;SDS011;1025;42.686;23.350;2022-10-31T01:30:59;2.93;;;2.77;;
2039;SDS011;1025;42.686;23.350;2022-10-31T01:33:26;3.00;;;2.80;;
2039;SDS011;1025;42.686;23.350;2022-10-31T01:35:52;3.77;;;3.43;;
2039;SDS011;1025;42.686;23.350;2022-10-31T01:38:19;2.90;;;2.70;;
2039;SDS011;1025;42.686;23.350;2022-10-31T01:40:47;3.20;;;2.83;;
2039;SDS011;1025;42.686;23.350;2022-10-31T01:43:13;4.37;;;3.93;;
2039;SDS011;1025;42.686;23.350;2022-10-31T01:45:40;2.60;;;2.50;;
2039;SDS011;1025;42.686;23.350;2022-10-31T01:48:09;3.37;;;3.17;;
2039;SDS011;1025;42.686;23.350;2022-10-31T01:50:37;21.37;;;4.07;;
2039;SDS011;1025;42.686;23.350;2022-10-31T01:53:05;4.70;;;4.23;;
2039;SDS011;1025;42.686;23.350;2022-10-31T01:55:32;4.57;;;4.27;;
2039;SDS011;1025;42.686;23.350;2022-10-31T01:58:03;4.43;;;4.23;;
2039;SDS011;1025;42.686;23.350;2022-10-31T02:00:30;5.30;;;4.40;;
2039;SDS011;1025;42.686;23.350;2022-10-31T02:02:57;3.60;;;3.33;;
2039;SDS011;1025;42.686;23.350;2022-10-31T02:05:25;4.30;;;4.00;;
2039;SDS011;1025;42.686;23.350;2022-10-31T02:07:54;5.20;;;4.90;;
2039;SDS011;1025;42.686;23.350;2022-10-31T02:10:22;4.00;;;3.70;;
2039;SDS011;1025;42.686;23.350;2022-10-31T02:12:50;4.93;;;4.63;;
2039;SDS011;1025;42.686;23.350;2022-10-31T02:15:19;4.40;;;4.00;;
2039;SDS011;1025;42.686;23.350;2022-10-31T02:17:45;9.43;;;5.10;;
2039;SDS011;1025;42.686;23.350;2022-10-31T02:20:14;4.50;;;4.30;;
2039;SDS011;1025;42.686;23.350;2022-10-31T02:22:46;4.37;;;4.17;;
2039;SDS011;1025;42.686;23.350;2022-10-31T02:25:22;5.00;;;4.60;;
2039;SDS011;1025;42.686;23.350;2022-10-31T02:28:04;4.93;;;4.63;;
2039;SDS011;1025;42.686;23.350;2022-10-31T02:30:37;4.77;;;4.47;;
2039;SDS011;1025;42.686;23.350;2022-10-31T02:33:11;4.67;;;4.47;;
2039;SDS011;1025;42.686;23.350;2022-10-31T02:35:45;3.73;;;3.43;;
2039;SDS011;1025;42.686;23.350;2022-10-31T02:38:17;4.20;;;3.90;;
2039;SDS011;1025;42.686;23.350;2022-10-31T02:40:51;3.87;;;3.67;;
2039;SDS011;1025;42.686;23.350;2022-10-31T02:43:20;3.90;;;3.60;;
2039;SDS011;1025;42.686;23.350;2022-10-31T02:45:48;3.83;;;3.53;;
2039;SDS011;1025;42.686;23.350;2022-10-31T02:48:18;3.97;;;3.47;;
2039;SDS011;1025;42.686;23.350;2022-10-31T02:50:46;5.40;;;4.90;;
2039;SDS011;1025;42.686;23.350;2022-10-31T02:53:14;3.87;;;3.30;;
2039;SDS011;1025;42.686;23.350;2022-10-31T02:55:47;4.20;;;2.93;;
2039;SDS011;1025;42.686;23.350;2022-10-31T02:58:15;3.67;;;3.47;;
2039;SDS011;1025;42.686;23.350;2022-10-31T03:00:45;3.43;;;3.33;;
2039;SDS011;1025;42.686;23.350;2022-10-31T03:03:14;3.57;;;3.37;;
2039;SDS011;1025;42.686;23.350;2022-10-31T03:05:48;3.93;;;3.73;;
2039;SDS011;1025;42.686;23.350;2022-10-31T03:08:18;8.50;;;7.90;;
2039;SDS011;1025;42.686;23.350;2022-10-31T03:10:48;3.80;;;3.60;;
2039;SDS011;1025;42.686;23.350;2022-10-31T03:13:19;9.60;;;4.57;;
2039;SDS011;1025;42.686;23.350;2022-10-31T03:15:48;3.63;;;3.43;;
2039;SDS011;1025;42.686;23.350;2022-10-31T03:18:16;4.57;;;4.23;;
2039;SDS011;1025;42.686;23.350;2022-10-31T03:20:45;3.40;;;3.20;;
2039;SDS011;1025;42.686;23.350;2022-10-31T03:23:16;4.43;;;4.13;;
2039;SDS011;1025;42.686;23.350;2022-10-31T03:25:43;4.37;;;4.07;;
2039;SDS011;1025;42.686;23.350;2022-10-31T03:28:11;6.80;;;4.90;;
2039;SDS011;1025;42.686;23.350;2022-10-31T03:30:40;4.50;;;3.83;;
2039;SDS011;1025;42.686;23.350;2022-10-31T03:33:09;4.93;;;4.53;;
2039;SDS011;1025;42.686;23.350;2022-10-31T03:35:36;8.10;;;5.30;;
2039;SDS011;1025;42.686;23.350;2022-10-31T03:38:02;5.70;;;5.27;;
2039;SDS011;1025;42.686;23.350;2022-10-31T03:40:31;5.03;;;4.60;;
2039;SDS011;1025;42.686;23.350;2022-10-31T03:42:59;5.43;;;4.93;;
2039;SDS011;1025;42.686;23.350;2022-10-31T03:45:27;6.07;;;5.07;;
2039;SDS011;1025;42.686;23.350;2022-10-31T03:47:55;5.27;;;4.87;;
2039;SDS011;1025;42.686;23.350;2022-10-31T03:50:23;4.37;;;4.07;;
2039;SDS011;1025;42.686;23.350;2022-10-31T03:52:52;4.67;;;4.37;;
2039;SDS011;1025;42.686;23.350;2022-10-31T03:55:22;5.00;;;4.70;;
2039;SDS011;1025;42.686;23.350;2022-10-31T03:57:54;4.10;;;3.90;;
2039;SDS011;1025;42.686;23.350;2022-10-31T04:00:22;4.97;;;4.57;;
2039;SDS011;1025;42.686;23.350;2022-10-31T04:02:50;4.53;;;4.23;;
2039;SDS011;1025;42.686;23.350;2022-10-31T04:05:18;4.37;;;4.07;;
2039;SDS011;1025;42.686;23.350;2022-10-31T04:07:46;4.93;;;4.63;;
2039;SDS011;1025;42.686;23.350;2022-10-31T04:10:13;4.97;;;4.50;;
2039;SDS011;1025;42.686;23.350;2022-10-31T04:12:41;5.60;;;5.17;;
2039;SDS011;1025;42.686;23.350;2022-10-31T04:15:11;5.33;;;4.97;;
2039;SDS011;1025;42.686;23.350;2022-10-31T04:17:39;4.10;;;3.83;;
2039;SDS011;1025;42.686;23.350;2022-10-31T04:20:07;5.33;;;5.03;;
2039;SDS011;1025;42.686;23.350;2022-10-31T04:22:33;4.80;;;4.50;;
2039;SDS011;1025;42.686;23.350;2022-10-31T04:25:00;6.80;;;6.30;;
2039;SDS011;1025;42.686;23.350;2022-10-31T04:27:26;6.50;;;6.00;;
2039;SDS011;1025;42.686;23.350;2022-10-31T04:29:53;7.60;;;5.03;;
2039;SDS011;1025;42.686;23.350;2022-10-31T04:32:22;5.73;;;5.20;;
2039;SDS011;1025;42.686;23.350;2022-10-31T04:34:49;4.87;;;4.57;;
2039;SDS011;1025;42.686;23.350;2022-10-31T04:37:15;5.60;;;5.13;;
2039;SDS011;1025;42.686;23.350;2022-10-31T04:39:42;8.23;;;5.30;;
2039;SDS011;1025;42.686;23.350;2022-10-31T04:42:08;5.13;;;4.83;;
2039;SDS011;1025;42.686;23.350;2022-10-31T04:44:35;6.20;;;5.70;;
2039;SDS011;1025;42.686;23.350;2022-10-31T04:47:01;5.87;;;5.30;;
2039;SDS011;1025;42.686;23.350;2022-10-31T04:49:29;5.70;;;5.40;;
2039;SDS011;1025;42.686;23.350;2022-10-31T04:51:56;6.57;;;6.03;;
2039;SDS011;1025;42.686;23.350;2022-10-31T04:54:22;5.33;;;5.00;;
2039;SDS011;1025;42.686;23.350;2022-10-31T04:56:49;8.10;;;4.07;;
2039;SDS011;1025;42.686;23.350;2022-10-31T04:59:15;7.07;;;6.50;;
2039;SDS011;1025;42.686;23.350;2022-10-31T05:01:42;7.50;;;6.80;;
2039;SDS011;1025;42.686;23.350;2022-10-31T05:04:09;6.90;;;5.90;;
2039;SDS011;1025;42.686;23.350;2022-10-31T05:06:36;7.80;;;7.00;;
2039;SDS011;1025;42.686;23.350;2022-10-31T05:09:03;7.17;;;6.57;;
2039;SDS011;1025;42.686;23.350;2022-10-31T05:11:30;7.17;;;6.60;;
2039;SDS011;1025;42.686;23.350;2022-10-31T05:13:56;8.27;;;7.33;;
2039;SDS011;1025;42.686;23.350;2022-10-31T05:16:23;6.47;;;6.03;;
2039;SDS011;1025;42.686;23.350;2022-10-31T05:18:49;11.43;;;6.77;;
2039;SDS011;1025;42.686;23.350;2022-10-31T05:21:16;5.27;;;4.87;;
2039;SDS011;1025;42.686;23.350;2022-10-31T05:23:44;6.93;;;5.80;;
2039;SDS011;1025;42.686;23.350;2022-10-31T05:26:10;6.00;;;5.60;;
2039;SDS011;1025;42.686;23.350;2022-10-31T05:28:37;5.27;;;4.87;;
2039;SDS011;1025;42.686;23.350;2022-10-31T05:31:03;8.30;;;6.07;;
2039;SDS011;1025;42.686;23.350;2022-10-31T05:33:30;6.57;;;5.90;;
2039;SDS011;1025;42.686;23.350;2022-10-31T05:35:56;6.80;;;6.40;;
2039;SDS011;1025;42.686;23.350;2022-10-31T05:38:23;7.63;;;7.03;;
2039;SDS011;1025;42.686;23.350;2022-10-31T05:40:51;6.63;;;6.23;;
2039;SDS011;1025;42.686;23.350;2022-10-31T05:43:22;13.00;;;8.30;;
2039;SDS011;1025;42.686;23.350;2022-10-31T05:45:51;8.33;;;7.63;;
2039;SDS011;1025;42.686;23.350;2022-10-31T05:48:17;9.87;;;7.33;;
2039;SDS011;1025;42.686;23.350;2022-10-31T05:50:44;10.93;;;7.53;;
2039;SDS011;1025;42.686;23.350;2022-10-31T05:53:10;6.47;;;6.17;;
2039;SDS011;1025;42.686;23.350;2022-10-31T05:55:37;7.70;;;7.10;;
2039;SDS011;1025;42.686;23.350;2022-10-31T05:58:07;7.60;;;6.97;;
2039;SDS011;1025;42.686;23.350;2022-10-31T06:00:33;6.93;;;6.43;;
2039;SDS011;1025;42.686;23.350;2022-10-31T06:03:00;6.57;;;6.10;;
2039;SDS011;1025;42.686;23.350;2022-10-31T06:05:27;7.03;;;6.53;;
2039;SDS011;1025;42.686;23.350;2022-10-31T06:07:54;6.83;;;6.23;;
2039;SDS011;1025;42.686;23.350;2022-10-31T06:10:20;9.70;;;6.60;;
2039;SDS011;1025;42.686;23.350;2022-10-31T06:12:47;8.00;;;7.30;;
2039;SDS011;1025;42.686;23.350;2022-10-31T06:15:16;11.63;;;7.27;;
2039;SDS011;1025;42.686;23.350;2022-10-31T06:17:42;7.87;;;7.30;;
2039;SDS011;1025;42.686;23.350;2022-10-31T06:20:09;5.67;;;5.33;;
2039;SDS011;1025;42.686;23.350;2022-10-31T06:22:36;6.53;;;6.10;;
2039;SDS011;1025;42.686;23.350;2022-10-31T06:25:03;6.73;;;5.80;;
2039;SDS011;1025;42.686;23.350;2022-10-31T06:27:29;18.03;;;5.83;;
2039;SDS011;1025;42.686;23.350;2022-10-31T06:29:56;8.90;;;5.47;;
2039;SDS011;1025;42.686;23.350;2022-10-31T06:32:24;6.20;;;5.80;;
2039;SDS011;1025;42.686;23.350;2022-10-31T06:34:50;7.03;;;6.63;;
2039;SDS011;1025;42.686;23.350;2022-10-31T06:37:17;7.63;;;6.93;;
2039;SDS011;1025;42.686;23.350;2022-10-31T06:39:43;10.97;;;6.50;;
2039;SDS011;1025;42.686;23.350;2022-10-31T06:42:10;6.40;;;5.13;;
2039;SDS011;1025;42.686;23.350;2022-10-31T06:44:37;6.70;;;6.30;;
2039;SDS011;1025;42.686;23.350;2022-10-31T06:47:03;6.63;;;6.03;;
2039;SDS011;1025;42.686;23.350;2022-10-31T06:49:32;6.30;;;5.80;;
2039;SDS011;1025;42.686;23.350;2022-10-31T06:51:59;7.13;;;6.53;;
2039;SDS011;1025;42.686;23.350;2022-10-31T06:54:26;6.67;;;6.17;;
2039;SDS011;1025;42.686;23.350;2022-10-31T06:56:52;11.87;;;6.77;;
2039;SDS011;1025;42.686;23.350;2022-10-31T06:59:19;7.47;;;6.77;;
2039;SDS011;1025;42.686;23.350;2022-10-31T07:01:45;8.13;;;7.47;;
2039;SDS011;1025;42.686;23.350;2022-10-31T07:04:12;7.10;;;6.70;;
2039;SDS011;1025;42.686;23.350;2022-10-31T07:06:40;8.47;;;7.00;;
2039;SDS011;1025;42.686;23.350;2022-10-31T07:09:06;6.70;;;6.10;;
2039;SDS011;1025;42.686;23.350;2022-10-31T07:11:33;8.03;;;7.43;;
2039;SDS011;1025;42.686;23.350;2022-10-31T07:13:59;6.67;;;6.27;;
2039;SDS011;1025;42.686;23.350;2022-10-31T07:16:26;6.67;;;6.17;;
2039;SDS011;1025;42.686;23.350;2022-10-31T07:18:53;6.37;;;5.90;;
2039;SDS011;1025;42.686;23.350;2022-10-31T07:21:19;5.80;;;5.50;;
2039;SDS011;1025;42.686;23.350;2022-10-31T07:23:48;5.93;;;5.57;;
2039;SDS011;1025;42.686;23.350;2022-10-31T07:26:14;7.70;;;6.93;;
2039;SDS011;1025;42.686;23.350;2022-10-31T07:28:41;7.40;;;6.90;;
2039;SDS011;1025;42.686;23.350;2022-10-31T07:31:07;5.70;;;5.30;;
2039;SDS011;1025;42.686;23.350;2022-10-31T07:33:34;6.03;;;5.63;;
2039;SDS011;1025;42.686;23.350;2022-10-31T07:36:01;7.40;;;7.00;;
2039;SDS011;1025;42.686;23.350;2022-10-31T07:38:27;6.33;;;5.90;;
2039;SDS011;1025;42.686;23.350;2022-10-31T07:40:55;6.20;;;5.80;;
2039;SDS011;1025;42.686;23.350;2022-10-31T07:43:22;7.40;;;6.90;;
2039;SDS011;1025;42.686;23.350;2022-10-31T07:45:49;6.50;;;6.10;;
2039;SDS011;1025;42.686;23.350;2022-10-31T07:48:16;8.60;;;6.87;;
2039;SDS011;1025;42.686;23.350;2022-10-31T07:50:42;7.60;;;7.03;;
2039;SDS011;1025;42.686;23.350;2022-10-31T07:53:10;8.73;;;8.13;;
2039;SDS011;1025;42.686;23.350;2022-10-31T07:55:37;7.63;;;7.13;;
2039;SDS011;1025;42.686;23.350;2022-10-31T07:58:06;8.07;;;7.43;;
2039;SDS011;1025;42.686;23.350;2022-10-31T08:00:33;8.83;;;8.00;;
2039;SDS011;1025;42.686;23.350;2022-10-31T08:03:00;7.33;;;6.77;;
2039;SDS011;1025;42.686;23.350;2022-10-31T08:05:27;8.30;;;7.67;;
2039;SDS011;1025;42.686;23.350;2022-10-31T08:07:54;9.70;;;7.90;;
2039;SDS011;1025;42.686;23.350;2022-10-31T08:10:20;7.57;;;6.90;;
2039;SDS011;1025;42.686;23.350;2022-10-31T08:12:47;9.30;;;8.67;;
2039;SDS011;1025;42.686;23.350;2022-10-31T08:15:15;7.93;;;7.20;;
2039;SDS011;1025;42.686;23.350;2022-10-31T08:17:41;11.70;;;7.93;;
2039;SDS011;1025;42.686;23.350;2022-10-31T08:20:08;7.77;;;7.17;;
2039;SDS011;1025;42.686;23.350;2022-10-31T08:22:35;7.93;;;7.17;;
2039;SDS011;1025;42.686;23.350;2022-10-31T08:25:02;9.80;;;7.20;;
2039;SDS011;1025;42.686;23.350;2022-10-31T08:27:28;8.07;;;7.27;;
2039;SDS011;1025;42.686;23.350;2022-10-31T08:29:55;5.63;;;5.33;;
2039;SDS011;1025;42.686;23.350;2022-10-31T08:32:23;6.97;;;6.50;;
2039;SDS011;1025;42.686;23.350;2022-10-31T08:34:49;9.63;;;8.70;;
2039;SDS011;1025;42.686;23.350;2022-10-31T08:37:16;6.60;;;6.10;;
2039;SDS011;1025;42.686;23.350;2022-10-31T08:39:45;7.37;;;6.60;;
2039;SDS011;1025;42.686;23.350;2022-10-31T08:42:11;9.63;;;8.23;;
2039;SDS011;1025;42.686;23.350;2022-10-31T08:44:38;7.53;;;6.30;;
2039;SDS011;1025;42.686;23.350;2022-10-31T08:47:04;6.83;;;6.33;;
2039;SDS011;1025;42.686;23.350;2022-10-31T08:49:32;14.30;;;8.93;;
2039;SDS011;1025;42.686;23.350;2022-10-31T08:51:59;7.10;;;6.60;;
2039;SDS011;1025;42.686;23.350;2022-10-31T08:54:25;6.43;;;6.00;;
2039;SDS011;1025;42.686;23.350;2022-10-31T08:56:53;7.90;;;7.20;;
2039;SDS011;1025;42.686;23.350;2022-10-31T08:59:20;10.53;;;6.13;;
2039;SDS011;1025;42.686;23.350;2022-10-31T09:01:46;10.37;;;9.50;;
2039;SDS011;1025;42.686;23.350;2022-10-31T09:04:13;6.67;;;6.23;;
2039;SDS011;1025;42.686;23.350;2022-10-31T09:06:41;7.93;;;6.90;;
2039;SDS011;1025;42.686;23.350;2022-10-31T09:09:07;9.50;;;7.83;;
2039;SDS011;1025;42.686;23.350;2022-10-31T09:11:34;8.13;;;7.40;;
2039;SDS011;1025;42.686;23.350;2022-10-31T09:14:00;7.70;;;6.83;;
2039;SDS011;1025;42.686;23.350;2022-10-31T09:16:27;7.03;;;6.43;;
2039;SDS011;1025;42.686;23.350;2022-10-31T09:18:53;7.90;;;7.30;;
2039;SDS011;1025;42.686;23.350;2022-10-31T09:21:20;16.73;;;7.70;;
2039;SDS011;1025;42.686;23.350;2022-10-31T09:23:48;6.90;;;6.50;;
2039;SDS011;1025;42.686;23.350;2022-10-31T09:26:14;9.40;;;7.57;;
2039;SDS011;1025;42.686;23.350;2022-10-31T09:28:41;6.23;;;5.73;;
2039;SDS011;1025;42.686;23.350;2022-10-31T09:31:09;7.57;;;6.97;;
2039;SDS011;1025;42.686;23.350;2022-10-31T09:33:36;13.60;;;7.73;;
2039;SDS011;1025;42.686;23.350;2022-10-31T09:36:03;7.70;;;6.77;;
2039;SDS011;1025;42.686;23.350;2022-10-31T09:38:29;8.53;;;6.23;;
2039;SDS011;1025;42.686;23.350;2022-10-31T09:41:01;6.13;;;5.70;;
2039;SDS011;1025;42.686;23.350;2022-10-31T09:43:33;8.73;;;7.90;;
2039;SDS011;1025;42.686;23.350;2022-10-31T09:46:04;8.50;;;6.90;;
2039;SDS011;1025;42.686;23.350;2022-10-31T09:48:42;6.43;;;6.00;;
2039;SDS011;1025;42.686;23.350;2022-10-31T09:51:10;6.10;;;5.73;;
2039;SDS011;1025;42.686;23.350;2022-10-31T09:53:39;6.40;;;6.10;;
2039;SDS011;1025;42.686;23.350;2022-10-31T09:56:09;6.13;;;5.77;;
2039;SDS011;1025;42.686;23.350;2022-10-31T09:58:41;7.00;;;6.30;;
2039;SDS011;1025;42.686;23.350;2022-10-31T10:01:09;6.30;;;5.80;;
2039;SDS011;1025;42.686;23.350;2022-10-31T10:03:41;17.80;;;7.13;;
2039;SDS011;1025;42.686;23.350;2022-10-31T10:06:10;7.37;;;6.57;;
2039;SDS011;1025;42.686;23.350;2022-10-31T10:08:38;5.23;;;4.93;;
2039;SDS011;1025;42.686;23.350;2022-10-31T10:11:08;5.93;;;5.43;;
2039;SDS011;1025;42.686;23.350;2022-10-31T10:13:44;6.00;;;5.50;;
2039;SDS011;1025;42.686;23.350;2022-10-31T10:16:19;6.50;;;5.97;;
2039;SDS011;1025;42.686;23.350;2022-10-31T10:18:53;8.80;;;5.40;;
2039;SDS011;1025;42.686;23.350;2022-10-31T10:21:24;4.53;;;4.13;;
2039;SDS011;1025;42.686;23.350;2022-10-31T10:23:57;6.50;;;4.40;;
2039;SDS011;1025;42.686;23.350;2022-10-31T10:26:28;5.83;;;5.27;;
2039;SDS011;1025;42.686;23.350;2022-10-31T10:28:57;7.73;;;6.00;;
2039;SDS011;1025;42.686;23.350;2022-10-31T10:31:24;3.87;;;3.57;;
2039;SDS011;1025;42.686;23.350;2022-10-31T10:34:01;4.73;;;4.33;;
2039;SDS011;1025;42.686;23.350;2022-10-31T10:36:28;4.77;;;3.77;;
2039;SDS011;1025;42.686;23.350;2022-10-31T10:38:58;6.07;;;3.80;;
2039;SDS011;1025;42.686;23.350;2022-10-31T10:41:28;6.70;;;4.20;;
2039;SDS011;1025;42.686;23.350;2022-10-31T10:43:57;4.73;;;3.83;;
2039;SDS011;1025;42.686;23.350;2022-10-31T10:46:24;3.90;;;3.60;;
2039;SDS011;1025;42.686;23.350;2022-10-31T10:49:13;4.47;;;3.97;;
2039;SDS011;1025;42.686;23.350;2022-10-31T10:51:43;5.73;;;5.30;;
2039;SDS011;1025;42.686;23.350;2022-10-31T10:57:00;4.03;;;3.63;;
2039;SDS011;1025;42.686;23.350;2022-10-31T10:59:30;4.17;;;3.90;;
2039;SDS011;1025;42.686;23.350;2022-10-31T11:01:57;4.33;;;3.60;;
2039;SDS011;1025;42.686;23.350;2022-10-31T11:04:26;3.40;;;3.07;;
2039;SDS011;1025;42.686;23.350;2022-10-31T11:06:59;3.03;;;2.67;;
2039;SDS011;1025;42.686;23.350;2022-10-31T11:09:26;2.90;;;2.77;;
2039;SDS011;1025;42.686;23.350;2022-10-31T11:11:53;4.07;;;3.20;;
2039;SDS011;1025;42.686;23.350;2022-10-31T11:14:20;2.53;;;2.43;;
2039;SDS011;1025;42.686;23.350;2022-10-31T11:16:49;4.17;;;3.77;;
2039;SDS011;1025;42.686;23.350;2022-10-31T11:19:17;2.70;;;2.60;;
2039;SDS011;1025;42.686;23.350;2022-10-31T11:21:44;4.00;;;3.70;;
2039;SDS011;1025;42.686;23.350;2022-10-31T11:24:13;6.93;;;3.97;;
2039;SDS011;1025;42.686;23.350;2022-10-31T11:26:41;4.10;;;2.33;;
2039;SDS011;1025;42.686;23.350;2022-10-31T11:29:11;2.60;;;2.40;;
2039;SDS011;1025;42.686;23.350;2022-10-31T11:31:39;4.57;;;3.60;;
2039;SDS011;1025;42.686;23.350;2022-10-31T11:34:12;2.83;;;2.63;;
2039;SDS011;1025;42.686;23.350;2022-10-31T11:36:42;2.93;;;2.63;;
2039;SDS011;1025;42.686;23.350;2022-10-31T11:39:13;3.27;;;3.07;;
2039;SDS011;1025;42.686;23.350;2022-10-31T11:41:41;3.40;;;3.20;;
2039;SDS011;1025;42.686;23.350;2022-10-31T11:44:10;3.87;;;3.00;;
2039;SDS011;1025;42.686;23.350;2022-10-31T11:46:38;3.90;;;3.60;;
2039;SDS011;1025;42.686;23.350;2022-10-31T11:51:50;4.10;;;3.73;;
2039;SDS011;1025;42.686;23.350;2022-10-31T11:54:21;5.00;;;3.90;;
2039;SDS011;1025;42.686;23.350;2022-10-31T11:56:48;3.67;;;3.37;;
2039;SDS011;1025;42.686;23.350;2022-10-31T11:59:17;5.73;;;2.50;;
2039;SDS011;1025;42.686;23.350;2022-10-31T12:01:46;2.30;;;2.13;;
2039;SDS011;1025;42.686;23.350;2022-10-31T12:04:13;3.30;;;2.90;;
2039;SDS011;1025;42.686;23.350;2022-10-31T12:06:41;3.47;;;3.00;;
2039;SDS011;1025;42.686;23.350;2022-10-31T12:09:14;7.33;;;6.63;;
2039;SDS011;1025;42.686;23.350;2022-10-31T12:11:46;4.43;;;3.33;;
2039;SDS011;1025;42.686;23.350;2022-10-31T12:14:18;4.90;;;2.70;;
2039;SDS011;1025;42.686;23.350;2022-10-31T12:16:48;3.87;;;3.57;;
2039;SDS011;1025;42.686;23.350;2022-10-31T12:19:20;3.00;;;2.80;;
2039;SDS011;1025;42.686;23.350;2022-10-31T12:22:08;2.83;;;2.73;;
2039;SDS011;1025;42.686;23.350;2022-10-31T12:24:47;3.00;;;2.80;;
2039;SDS011;1025;42.686;23.350;2022-10-31T12:27:20;2.20;;;2.10;;
2039;SDS011;1025;42.686;23.350;2022-10-31T12:30:00;6.23;;;3.30;;
2039;SDS011;1025;42.686;23.350;2022-10-31T12:32:31;3.10;;;2.53;;
2039;SDS011;1025;42.686;23.350;2022-10-31T12:35:15;2.53;;;2.43;;
2039;SDS011;1025;42.686;23.350;2022-10-31T12:37:48;2.50;;;2.40;;
2039;SDS011;1025;42.686;23.350;2022-10-31T12:40:24;3.50;;;2.80;;
2039;SDS011;1025;42.686;23.350;2022-10-31T12:42:57;3.73;;;2.67;;
2039;SDS011;1025;42.686;23.350;2022-10-31T12:45:33;3.00;;;2.80;;
2039;SDS011;1025;42.686;23.350;2022-10-31T12:48:20;3.07;;;2.73;;
2039;SDS011;1025;42.686;23.350;2022-10-31T12:50:52;4.50;;;3.77;;
2039;SDS011;1025;42.686;23.350;2022-10-31T12:53:28;3.10;;;2.90;;
2039;SDS011;1025;42.686;23.350;2022-10-31T12:56:02;4.97;;;3.30;;
2039;SDS011;1025;42.686;23.350;2022-10-31T12:58:33;3.70;;;3.27;;
2039;SDS011;1025;42.686;23.350;2022-10-31T13:01:03;2.40;;;2.27;;
2039;SDS011;1025;42.686;23.350;2022-10-31T13:03:33;6.90;;;2.87;;
2039;SDS011;1025;42.686;23.350;2022-10-31T13:06:03;3.77;;;3.47;;
2039;SDS011;1025;42.686;23.350;2022-10-31T13:08:33;17.20;;;3.53;;
2039;SDS011;1025;42.686;23.350;2022-10-31T13:11:05;2.83;;;2.63;;
2039;SDS011;1025;42.686;23.350;2022-10-31T13:13:33;3.03;;;2.83;;
2039;SDS011;1025;42.686;23.350;2022-10-31T13:16:03;7.50;;;3.27;;
2039;SDS011;1025;42.686;23.350;2022-10-31T13:18:31;6.23;;;5.77;;
2039;SDS011;1025;42.686;23.350;2022-10-31T13:20:59;4.53;;;3.70;;
2039;SDS011;1025;42.686;23.350;2022-10-31T13:23:29;5.17;;;2.70;;
2039;SDS011;1025;42.686;23.350;2022-10-31T13:25:56;2.47;;;2.37;;
2039;SDS011;1025;42.686;23.350;2022-10-31T13:28:26;5.00;;;4.60;;
2039;SDS011;1025;42.686;23.350;2022-10-31T13:30:55;2.77;;;2.57;;
2039;SDS011;1025;42.686;23.350;2022-10-31T13:33:23;3.30;;;3.10;;
2039;SDS011;1025;42.686;23.350;2022-10-31T13:35:55;9.53;;;3.47;;
2039;SDS011;1025;42.686;23.350;2022-10-31T13:38:27;2.50;;;2.30;;
2039;SDS011;1025;42.686;23.350;2022-10-31T13:40:57;3.90;;;3.30;;
2039;SDS011;1025;42.686;23.350;2022-10-31T13:43:30;7.10;;;2.70;;
2039;SDS011;1025;42.686;23.350;2022-10-31T13:45:57;3.93;;;2.97;;
2039;SDS011;1025;42.686;23.350;2022-10-31T13:48:34;2.50;;;2.30;;
2039;SDS011;1025;42.686;23.350;2022-10-31T13:51:02;4.13;;;3.80;;
2039;SDS011;1025;42.686;23.350;2022-10-31T13:53:36;3.97;;;2.87;;
2039;SDS011;1025;42.686;23.350;2022-10-31T13:56:03;2.50;;;2.27;;
2039;SDS011;1025;42.686;23.350;2022-10-31T13:58:33;3.73;;;3.20;;
2039;SDS011;1025;42.686;23.350;2022-10-31T14:01:02;2.73;;;2.23;;
2039;SDS011;1025;42.686;23.350;2022-10-31T14:03:31;2.63;;;2.53;;
2039;SDS011;1025;42.686;23.350;2022-10-31T14:05:59;2.57;;;2.47;;
2039;SDS011;1025;42.686;23.350;2022-10-31T14:08:26;4.20;;;3.90;;
2039;SDS011;1025;42.686;23.350;2022-10-31T14:10:53;2.37;;;2.27;;
2039;SDS011;1025;42.686;23.350;2022-10-31T14:13:21;8.43;;;3.50;;
2039;SDS011;1025;42.686;23.350;2022-10-31T14:15:54;4.50;;;3.27;;
2039;SDS011;1025;42.686;23.350;2022-10-31T14:18:21;3.03;;;2.70;;
2039;SDS011;1025;42.686;23.350;2022-10-31T14:20:48;3.63;;;3.10;;
2039;SDS011;1025;42.686;23.350;2022-10-31T14:26:17;3.33;;;3.03;;
2039;SDS011;1025;42.686;23.350;2022-10-31T14:28:44;3.47;;;3.17;;
2039;SDS011;1025;42.686;23.350;2022-10-31T14:31:31;2.43;;;2.30;;
2039;SDS011;1025;42.686;23.350;2022-10-31T14:34:00;3.10;;;2.90;;
2039;SDS011;1025;42.686;23.350;2022-10-31T14:36:29;2.83;;;2.63;;
2039;SDS011;1025;42.686;23.350;2022-10-31T14:39:01;4.53;;;3.37;;
2039;SDS011;1025;42.686;23.350;2022-10-31T14:41:37;3.60;;;3.30;;
2039;SDS011;1025;42.686;23.350;2022-10-31T14:44:21;7.20;;;3.63;;
2039;SDS011;1025;42.686;23.350;2022-10-31T14:46:53;5.03;;;2.90;;
2039;SDS011;1025;42.686;23.350;2022-10-31T14:52:12;4.43;;;4.13;;
2039;SDS011;1025;42.686;23.350;2022-10-31T14:54:40;5.20;;;4.67;;
2039;SDS011;1025;42.686;23.350;2022-10-31T14:57:12;6.43;;;4.07;;
2039;SDS011;1025;42.686;23.350;2022-10-31T14:59:41;7.37;;;6.87;;
2039;SDS011;1025;42.686;23.350;2022-10-31T15:02:12;4.20;;;3.87;;
2039;SDS011;1025;42.686;23.350;2022-10-31T15:04:40;6.67;;;4.83;;
2039;SDS011;1025;42.686;23.350;2022-10-31T15:07:09;5.50;;;5.03;;
2039;SDS011;1025;42.686;23.350;2022-10-31T15:09:37;7.70;;;4.57;;
2039;SDS011;1025;42.686;23.350;2022-10-31T15:12:21;13.87;;;4.40;;
2039;SDS011;1025;42.686;23.350;2022-10-31T15:14:49;4.57;;;4.17;;
2039;SDS011;1025;42.686;23.350;2022-10-31T15:17:17;11.40;;;4.87;;
2039;SDS011;1025;42.686;23.350;2022-10-31T15:19:43;3.53;;;3.23;;